sensor_id;sensor_type;location;lat;lon;timestamp;P1;durP1;ratioP1;P2;durP2;ratioP2
13981;SDS011;7065;50.880;5.502;2023-07-09T00:02:00;8.50;;;7.70;;
13981;SDS011;7065;50.880;5.502;2023-07-09T00:04:26;8.95;;;7.60;;
13981;SDS011;7065;50.880;5.502;2023-07-09T00:06:54;8.73;;;7.72;;
13981;SDS011;7065;50.880;5.502;2023-07-09T00:09:22;8.07;;;7.28;;
13981;SDS011;7065;50.880;5.502;2023-07-09T00:11:48;7.93;;;7.13;;
13981;SDS011;7065;50.880;5.502;2023-07-09T00:14:15;10.32;;;6.55;;
13981;SDS011;7065;50.880;5.502;2023-07-09T00:16:42;6.53;;;5.82;;
13981;SDS011;7065;50.880;5.502;2023-07-09T00:19:11;8.55;;;6.93;;
13981;SDS011;7065;50.880;5.502;2023-07-09T00:21:39;8.73;;;7.78;;
13981;SDS011;7065;50.880;5.502;2023-07-09T00:24:06;7.82;;;7.00;;
13981;SDS011;7065;50.880;5.502;2023-07-09T00:26:32;8.77;;;7.88;;
13981;SDS011;7065;50.880;5.502;2023-07-09T00:28:59;8.38;;;6.97;;
13981;SDS011;7065;50.880;5.502;2023-07-09T00:31:25;8.88;;;7.18;;
13981;SDS011;7065;50.880;5.502;2023-07-09T00:33:51;9.50;;;8.25;;
13981;SDS011;7065;50.880;5.502;2023-07-09T00:36:27;9.50;;;7.85;;
13981;SDS011;7065;50.880;5.502;2023-07-09T00:38:56;8.75;;;7.45;;
13981;SDS011;7065;50.880;5.502;2023-07-09T00:41:24;9.45;;;6.97;;
13981;SDS011;7065;50.880;5.502;2023-07-09T00:43:51;7.78;;;6.97;;
13981;SDS011;7065;50.880;5.502;2023-07-09T00:48:48;7.93;;;7.15;;
13981;SDS011;7065;50.880;5.502;2023-07-09T00:51:18;7.60;;;6.80;;
13981;SDS011;7065;50.880;5.502;2023-07-09T00:53:46;7.90;;;6.97;;
13981;SDS011;7065;50.880;5.502;2023-07-09T00:56:18;7.30;;;6.60;;
13981;SDS011;7065;50.880;5.502;2023-07-09T00:59:05;9.10;;;6.72;;
13981;SDS011;7065;50.880;5.502;2023-07-09T01:01:36;8.70;;;7.00;;
13981;SDS011;7065;50.880;5.502;2023-07-09T01:04:05;9.00;;;6.38;;
13981;SDS011;7065;50.880;5.502;2023-07-09T01:06:39;9.82;;;7.35;;
13981;SDS011;7065;50.880;5.502;2023-07-09T01:09:14;9.65;;;6.95;;
13981;SDS011;7065;50.880;5.502;2023-07-09T01:11:40;9.00;;;7.93;;
13981;SDS011;7065;50.880;5.502;2023-07-09T01:14:07;7.97;;;7.18;;
13981;SDS011;7065;50.880;5.502;2023-07-09T01:16:43;7.95;;;6.78;;
13981;SDS011;7065;50.880;5.502;2023-07-09T01:19:13;7.97;;;7.15;;
13981;SDS011;7065;50.880;5.502;2023-07-09T01:21:41;8.68;;;7.40;;
13981;SDS011;7065;50.880;5.502;2023-07-09T01:24:11;7.80;;;7.00;;
13981;SDS011;7065;50.880;5.502;2023-07-09T01:26:44;9.25;;;8.15;;
13981;SDS011;7065;50.880;5.502;2023-07-09T01:29:11;9.80;;;8.15;;
13981;SDS011;7065;50.880;5.502;2023-07-09T01:31:37;9.57;;;8.60;;
13981;SDS011;7065;50.880;5.502;2023-07-09T01:34:03;9.23;;;8.20;;
13981;SDS011;7065;50.880;5.502;2023-07-09T01:36:28;8.50;;;7.70;;
13981;SDS011;7065;50.880;5.502;2023-07-09T01:38:55;9.82;;;8.38;;
13981;SDS011;7065;50.880;5.502;2023-07-09T01:41:21;8.90;;;7.75;;
13981;SDS011;7065;50.880;5.502;2023-07-09T01:43:47;9.25;;;8.30;;
13981;SDS011;7065;50.880;5.502;2023-07-09T01:46:13;8.73;;;7.82;;
13981;SDS011;7065;50.880;5.502;2023-07-09T01:48:39;8.40;;;7.60;;
13981;SDS011;7065;50.880;5.502;2023-07-09T01:51:10;8.00;;;7.20;;
13981;SDS011;7065;50.880;5.502;2023-07-09T01:53:39;9.05;;;8.10;;
13981;SDS011;7065;50.880;5.502;2023-07-09T01:56:06;8.90;;;8.00;;
13981;SDS011;7065;50.880;5.502;2023-07-09T01:58:35;8.60;;;7.72;;
13981;SDS011;7065;50.880;5.502;2023-07-09T02:01:01;9.63;;;8.25;;
13981;SDS011;7065;50.880;5.502;2023-07-09T02:03:27;9.02;;;7.90;;
13981;SDS011;7065;50.880;5.502;2023-07-09T02:05:53;8.73;;;7.82;;
13981;SDS011;7065;50.880;5.502;2023-07-09T02:08:20;8.48;;;7.53;;
13981;SDS011;7065;50.880;5.502;2023-07-09T02:10:48;7.82;;;7.03;;
13981;SDS011;7065;50.880;5.502;2023-07-09T02:13:14;8.38;;;7.22;;
13981;SDS011;7065;50.880;5.502;2023-07-09T02:15:40;8.35;;;7.22;;
13981;SDS011;7065;50.880;5.502;2023-07-09T02:18:09;9.13;;;7.32;;
13981;SDS011;7065;50.880;5.502;2023-07-09T02:20:35;9.52;;;7.53;;
13981;SDS011;7065;50.880;5.502;2023-07-09T02:23:01;9.98;;;7.60;;
13981;SDS011;7065;50.880;5.502;2023-07-09T02:25:27;11.50;;;8.52;;
13981;SDS011;7065;50.880;5.502;2023-07-09T02:27:53;7.80;;;7.00;;
13981;SDS011;7065;50.880;5.502;2023-07-09T02:30:19;8.25;;;7.47;;
13981;SDS011;7065;50.880;5.502;2023-07-09T02:32:44;8.32;;;6.85;;
13981;SDS011;7065;50.880;5.502;2023-07-09T02:35:11;9.15;;;7.68;;
13981;SDS011;7065;50.880;5.502;2023-07-09T02:37:36;7.95;;;6.63;;
13981;SDS011;7065;50.880;5.502;2023-07-09T02:40:03;9.73;;;6.95;;
13981;SDS011;7065;50.880;5.502;2023-07-09T02:42:29;7.72;;;6.95;;
13981;SDS011;7065;50.880;5.502;2023-07-09T02:44:55;10.95;;;6.38;;
13981;SDS011;7065;50.880;5.502;2023-07-09T02:47:21;9.93;;;6.72;;
13981;SDS011;7065;50.880;5.502;2023-07-09T02:49:47;6.68;;;6.07;;
13981;SDS011;7065;50.880;5.502;2023-07-09T02:52:13;7.78;;;6.97;;
13981;SDS011;7065;50.880;5.502;2023-07-09T02:54:39;10.80;;;7.72;;
13981;SDS011;7065;50.880;5.502;2023-07-09T02:57:05;9.68;;;8.13;;
13981;SDS011;7065;50.880;5.502;2023-07-09T02:59:31;9.63;;;7.45;;
13981;SDS011;7065;50.880;5.502;2023-07-09T03:01:58;9.85;;;6.72;;
13981;SDS011;7065;50.880;5.502;2023-07-09T03:04:24;9.15;;;6.65;;
13981;SDS011;7065;50.880;5.502;2023-07-09T03:06:50;8.00;;;6.60;;
13981;SDS011;7065;50.880;5.502;2023-07-09T03:09:17;7.22;;;6.50;;
13981;SDS011;7065;50.880;5.502;2023-07-09T03:11:43;7.32;;;6.47;;
13981;SDS011;7065;50.880;5.502;2023-07-09T03:14:09;7.57;;;6.53;;
13981;SDS011;7065;50.880;5.502;2023-07-09T03:16:35;8.32;;;6.43;;
13981;SDS011;7065;50.880;5.502;2023-07-09T03:19:01;8.15;;;6.90;;
13981;SDS011;7065;50.880;5.502;2023-07-09T03:21:28;8.20;;;6.72;;
13981;SDS011;7065;50.880;5.502;2023-07-09T03:23:54;9.40;;;7.47;;
13981;SDS011;7065;50.880;5.502;2023-07-09T03:26:21;8.95;;;7.97;;
13981;SDS011;7065;50.880;5.502;2023-07-09T03:28:47;13.70;;;8.60;;
13981;SDS011;7065;50.880;5.502;2023-07-09T03:31:12;8.95;;;8.10;;
13981;SDS011;7065;50.880;5.502;2023-07-09T03:33:38;11.00;;;8.90;;
13981;SDS011;7065;50.880;5.502;2023-07-09T03:36:04;9.20;;;8.27;;
13981;SDS011;7065;50.880;5.502;2023-07-09T03:38:30;12.15;;;9.10;;
13981;SDS011;7065;50.880;5.502;2023-07-09T03:40:57;11.10;;;8.45;;
13981;SDS011;7065;50.880;5.502;2023-07-09T03:43:22;9.20;;;8.30;;
13981;SDS011;7065;50.880;5.502;2023-07-09T03:45:48;10.50;;;7.82;;
13981;SDS011;7065;50.880;5.502;2023-07-09T03:48:15;10.40;;;7.93;;
13981;SDS011;7065;50.880;5.502;2023-07-09T03:50:43;8.38;;;7.57;;
13981;SDS011;7065;50.880;5.502;2023-07-09T03:53:10;8.40;;;7.60;;
13981;SDS011;7065;50.880;5.502;2023-07-09T03:55:36;9.30;;;8.25;;
13981;SDS011;7065;50.880;5.502;2023-07-09T03:58:03;10.88;;;8.48;;
13981;SDS011;7065;50.880;5.502;2023-07-09T04:00:29;9.20;;;8.23;;
13981;SDS011;7065;50.880;5.502;2023-07-09T04:02:55;9.57;;;8.35;;
13981;SDS011;7065;50.880;5.502;2023-07-09T04:05:24;11.48;;;8.30;;
13981;SDS011;7065;50.880;5.502;2023-07-09T04:07:50;9.40;;;7.93;;
13981;SDS011;7065;50.880;5.502;2023-07-09T04:10:16;9.55;;;7.68;;
13981;SDS011;7065;50.880;5.502;2023-07-09T04:12:42;10.10;;;6.95;;
13981;SDS011;7065;50.880;5.502;2023-07-09T04:15:08;9.05;;;7.88;;
13981;SDS011;7065;50.880;5.502;2023-07-09T04:17:34;12.43;;;9.18;;
13981;SDS011;7065;50.880;5.502;2023-07-09T04:20:01;11.07;;;8.55;;
13981;SDS011;7065;50.880;5.502;2023-07-09T04:22:30;11.10;;;8.77;;
13981;SDS011;7065;50.880;5.502;2023-07-09T04:24:56;11.18;;;9.02;;
13981;SDS011;7065;50.880;5.502;2023-07-09T04:27:23;9.68;;;8.35;;
13981;SDS011;7065;50.880;5.502;2023-07-09T04:29:52;10.90;;;8.68;;
13981;SDS011;7065;50.880;5.502;2023-07-09T04:32:19;12.32;;;8.70;;
13981;SDS011;7065;50.880;5.502;2023-07-09T04:34:45;9.63;;;8.18;;
13981;SDS011;7065;50.880;5.502;2023-07-09T04:37:12;8.35;;;7.47;;
13981;SDS011;7065;50.880;5.502;2023-07-09T04:39:38;9.32;;;7.55;;
13981;SDS011;7065;50.880;5.502;2023-07-09T04:42:05;9.85;;;8.50;;
13981;SDS011;7065;50.880;5.502;2023-07-09T04:44:35;10.48;;;8.52;;
13981;SDS011;7065;50.880;5.502;2023-07-09T04:47:02;11.80;;;8.65;;
13981;SDS011;7065;50.880;5.502;2023-07-09T04:49:28;10.38;;;8.65;;
13981;SDS011;7065;50.880;5.502;2023-07-09T04:51:53;12.43;;;9.52;;
13981;SDS011;7065;50.880;5.502;2023-07-09T04:54:21;9.18;;;7.75;;
13981;SDS011;7065;50.880;5.502;2023-07-09T04:56:47;11.43;;;8.32;;
13981;SDS011;7065;50.880;5.502;2023-07-09T04:59:13;9.00;;;8.07;;
13981;SDS011;7065;50.880;5.502;2023-07-09T05:01:39;11.88;;;9.00;;
13981;SDS011;7065;50.880;5.502;2023-07-09T05:04:05;9.60;;;8.27;;
13981;SDS011;7065;50.880;5.502;2023-07-09T05:06:31;9.30;;;8.40;;
13981;SDS011;7065;50.880;5.502;2023-07-09T05:08:57;9.00;;;8.00;;
13981;SDS011;7065;50.880;5.502;2023-07-09T05:11:23;9.75;;;8.65;;
13981;SDS011;7065;50.880;5.502;2023-07-09T05:13:49;11.20;;;8.82;;
13981;SDS011;7065;50.880;5.502;2023-07-09T05:16:15;10.68;;;8.43;;
13981;SDS011;7065;50.880;5.502;2023-07-09T05:18:41;9.52;;;8.57;;
13981;SDS011;7065;50.880;5.502;2023-07-09T05:21:07;11.48;;;8.18;;
13981;SDS011;7065;50.880;5.502;2023-07-09T05:23:33;9.50;;;8.48;;
13981;SDS011;7065;50.880;5.502;2023-07-09T05:26:00;11.50;;;9.05;;
13981;SDS011;7065;50.880;5.502;2023-07-09T05:28:27;10.55;;;7.97;;
13981;SDS011;7065;50.880;5.502;2023-07-09T05:30:54;9.45;;;8.00;;
13981;SDS011;7065;50.880;5.502;2023-07-09T05:33:20;9.38;;;8.35;;
13981;SDS011;7065;50.880;5.502;2023-07-09T05:35:46;11.25;;;8.32;;
13981;SDS011;7065;50.880;5.502;2023-07-09T05:38:13;10.30;;;8.45;;
13981;SDS011;7065;50.880;5.502;2023-07-09T05:40:40;9.15;;;8.25;;
13981;SDS011;7065;50.880;5.502;2023-07-09T05:43:06;9.57;;;8.57;;
13981;SDS011;7065;50.880;5.502;2023-07-09T05:45:32;10.00;;;7.57;;
13981;SDS011;7065;50.880;5.502;2023-07-09T05:47:58;8.80;;;7.85;;
13981;SDS011;7065;50.880;5.502;2023-07-09T05:50:25;8.38;;;7.57;;
13981;SDS011;7065;50.880;5.502;2023-07-09T05:52:51;9.50;;;7.57;;
13981;SDS011;7065;50.880;5.502;2023-07-09T05:55:17;8.68;;;7.75;;
13981;SDS011;7065;50.880;5.502;2023-07-09T05:57:43;8.88;;;7.97;;
13981;SDS011;7065;50.880;5.502;2023-07-09T06:00:09;8.57;;;7.43;;
13981;SDS011;7065;50.880;5.502;2023-07-09T06:02:35;8.73;;;7.82;;
13981;SDS011;7065;50.880;5.502;2023-07-09T06:05:01;8.10;;;7.30;;
13981;SDS011;7065;50.880;5.502;2023-07-09T06:07:27;7.97;;;7.05;;
13981;SDS011;7065;50.880;5.502;2023-07-09T06:09:53;9.30;;;7.47;;
13981;SDS011;7065;50.880;5.502;2023-07-09T06:12:19;8.32;;;7.43;;
13981;SDS011;7065;50.880;5.502;2023-07-09T06:14:45;7.30;;;6.60;;
13981;SDS011;7065;50.880;5.502;2023-07-09T06:17:11;9.63;;;7.22;;
13981;SDS011;7065;50.880;5.502;2023-07-09T06:19:37;8.77;;;7.45;;
13981;SDS011;7065;50.880;5.502;2023-07-09T06:22:03;7.38;;;6.40;;
13981;SDS011;7065;50.880;5.502;2023-07-09T06:24:29;7.70;;;6.88;;
13981;SDS011;7065;50.880;5.502;2023-07-09T06:26:55;7.50;;;6.80;;
13981;SDS011;7065;50.880;5.502;2023-07-09T06:29:21;6.38;;;5.55;;
13981;SDS011;7065;50.880;5.502;2023-07-09T06:31:46;6.28;;;5.60;;
13981;SDS011;7065;50.880;5.502;2023-07-09T06:34:12;6.28;;;5.53;;
13981;SDS011;7065;50.880;5.502;2023-07-09T06:36:38;7.18;;;5.60;;
13981;SDS011;7065;50.880;5.502;2023-07-09T06:39:04;6.18;;;5.25;;
13981;SDS011;7065;50.880;5.502;2023-07-09T06:41:30;6.78;;;5.72;;
13981;SDS011;7065;50.880;5.502;2023-07-09T06:43:57;8.88;;;6.00;;
13981;SDS011;7065;50.880;5.502;2023-07-09T06:46:24;7.75;;;5.88;;
13981;SDS011;7065;50.880;5.502;2023-07-09T06:48:49;6.35;;;5.72;;
13981;SDS011;7065;50.880;5.502;2023-07-09T06:51:15;7.20;;;5.38;;
13981;SDS011;7065;50.880;5.502;2023-07-09T06:53:41;6.30;;;5.55;;
13981;SDS011;7065;50.880;5.502;2023-07-09T06:56:09;9.10;;;5.40;;
13981;SDS011;7065;50.880;5.502;2023-07-09T06:58:36;6.43;;;5.72;;
13981;SDS011;7065;50.880;5.502;2023-07-09T07:01:02;6.00;;;5.38;;
13981;SDS011;7065;50.880;5.502;2023-07-09T07:03:30;6.20;;;5.38;;
13981;SDS011;7065;50.880;5.502;2023-07-09T07:05:57;6.38;;;5.45;;
13981;SDS011;7065;50.880;5.502;2023-07-09T07:08:23;6.03;;;5.38;;
13981;SDS011;7065;50.880;5.502;2023-07-09T07:10:50;7.47;;;5.60;;
13981;SDS011;7065;50.880;5.502;2023-07-09T07:13:33;5.90;;;5.40;;
13981;SDS011;7065;50.880;5.502;2023-07-09T07:16:01;7.20;;;5.32;;
13981;SDS011;7065;50.880;5.502;2023-07-09T07:18:31;7.13;;;5.47;;
13981;SDS011;7065;50.880;5.502;2023-07-09T07:20:56;5.57;;;4.82;;
13981;SDS011;7065;50.880;5.502;2023-07-09T07:23:22;7.13;;;5.15;;
13981;SDS011;7065;50.880;5.502;2023-07-09T07:25:50;6.18;;;5.57;;
13981;SDS011;7065;50.880;5.502;2023-07-09T07:28:17;5.68;;;5.07;;
13981;SDS011;7065;50.880;5.502;2023-07-09T07:30:43;5.22;;;4.68;;
13981;SDS011;7065;50.880;5.502;2023-07-09T07:33:09;8.55;;;5.43;;
13981;SDS011;7065;50.880;5.502;2023-07-09T07:35:34;6.03;;;5.20;;
13981;SDS011;7065;50.880;5.502;2023-07-09T07:38:01;6.15;;;5.00;;
13981;SDS011;7065;50.880;5.502;2023-07-09T07:40:27;7.53;;;5.40;;
13981;SDS011;7065;50.880;5.502;2023-07-09T07:42:53;6.55;;;5.30;;
13981;SDS011;7065;50.880;5.502;2023-07-09T07:45:18;5.57;;;5.07;;
13981;SDS011;7065;50.880;5.502;2023-07-09T07:47:45;7.22;;;5.35;;
13981;SDS011;7065;50.880;5.502;2023-07-09T07:50:11;7.20;;;5.40;;
13981;SDS011;7065;50.880;5.502;2023-07-09T07:52:36;6.20;;;5.40;;
13981;SDS011;7065;50.880;5.502;2023-07-09T07:55:06;7.35;;;5.55;;
13981;SDS011;7065;50.880;5.502;2023-07-09T07:57:33;5.95;;;5.00;;
13981;SDS011;7065;50.880;5.502;2023-07-09T07:59:59;6.32;;;5.25;;
13981;SDS011;7065;50.880;5.502;2023-07-09T08:02:25;6.10;;;5.15;;
13981;SDS011;7065;50.880;5.502;2023-07-09T08:04:50;5.40;;;4.90;;
13981;SDS011;7065;50.880;5.502;2023-07-09T08:07:17;5.80;;;5.07;;
13981;SDS011;7065;50.880;5.502;2023-07-09T08:09:44;5.78;;;4.80;;
13981;SDS011;7065;50.880;5.502;2023-07-09T08:12:11;5.68;;;4.93;;
13981;SDS011;7065;50.880;5.502;2023-07-09T08:14:38;4.93;;;4.43;;
13981;SDS011;7065;50.880;5.502;2023-07-09T08:17:05;5.45;;;4.60;;
13981;SDS011;7065;50.880;5.502;2023-07-09T08:19:32;6.82;;;4.80;;
13981;SDS011;7065;50.880;5.502;2023-07-09T08:22:08;8.18;;;5.65;;
13981;SDS011;7065;50.880;5.502;2023-07-09T08:24:34;6.20;;;4.68;;
13981;SDS011;7065;50.880;5.502;2023-07-09T08:27:00;7.00;;;4.72;;
13981;SDS011;7065;50.880;5.502;2023-07-09T08:29:26;7.60;;;5.18;;
13981;SDS011;7065;50.880;5.502;2023-07-09T08:31:51;4.90;;;4.50;;
13981;SDS011;7065;50.880;5.502;2023-07-09T08:34:17;7.70;;;5.18;;
13981;SDS011;7065;50.880;5.502;2023-07-09T08:36:42;7.63;;;5.13;;
13981;SDS011;7065;50.880;5.502;2023-07-09T08:39:09;8.20;;;5.22;;
13981;SDS011;7065;50.880;5.502;2023-07-09T08:44:09;8.13;;;5.07;;
13981;SDS011;7065;50.880;5.502;2023-07-09T08:55:06;5.78;;;5.13;;
13981;SDS011;7065;50.880;5.502;2023-07-09T08:57:45;9.00;;;5.50;;
13981;SDS011;7065;50.880;5.502;2023-07-09T09:02:58;6.20;;;5.10;;
13981;SDS011;7065;50.880;5.502;2023-07-09T09:05:28;5.95;;;5.25;;
13981;SDS011;7065;50.880;5.502;2023-07-09T09:07:59;6.57;;;5.00;;
13981;SDS011;7065;50.880;5.502;2023-07-09T09:10:31;6.05;;;5.07;;
13981;SDS011;7065;50.880;5.502;2023-07-09T09:13:05;4.95;;;4.45;;
13981;SDS011;7065;50.880;5.502;2023-07-09T09:15:36;8.48;;;5.18;;
13981;SDS011;7065;50.880;5.502;2023-07-09T09:18:21;6.00;;;5.40;;
13981;SDS011;7065;50.880;5.502;2023-07-09T09:21:00;5.63;;;5.05;;
13981;SDS011;7065;50.880;5.502;2023-07-09T09:23:40;7.00;;;5.10;;
13981;SDS011;7065;50.880;5.502;2023-07-09T09:26:18;6.28;;;5.25;;
13981;SDS011;7065;50.880;5.502;2023-07-09T09:28:52;5.53;;;4.97;;
13981;SDS011;7065;50.880;5.502;2023-07-09T09:31:18;5.93;;;4.68;;
13981;SDS011;7065;50.880;5.502;2023-07-09T09:33:45;6.15;;;5.18;;
13981;SDS011;7065;50.880;5.502;2023-07-09T09:36:19;5.80;;;4.82;;
13981;SDS011;7065;50.880;5.502;2023-07-09T09:38:47;5.65;;;5.05;;
13981;SDS011;7065;50.880;5.502;2023-07-09T09:41:16;7.25;;;5.30;;
13981;SDS011;7065;50.880;5.502;2023-07-09T09:43:44;5.22;;;4.72;;
13981;SDS011;7065;50.880;5.502;2023-07-09T09:46:24;10.30;;;4.45;;
13981;SDS011;7065;50.880;5.502;2023-07-09T09:48:55;9.07;;;5.68;;
13981;SDS011;7065;50.880;5.502;2023-07-09T09:51:24;5.70;;;5.07;;
13981;SDS011;7065;50.880;5.502;2023-07-09T09:53:52;5.68;;;5.00;;
13981;SDS011;7065;50.880;5.502;2023-07-09T09:56:30;6.60;;;5.05;;
13981;SDS011;7065;50.880;5.502;2023-07-09T09:59:01;6.95;;;4.85;;
13981;SDS011;7065;50.880;5.502;2023-07-09T10:01:33;6.07;;;4.90;;
13981;SDS011;7065;50.880;5.502;2023-07-09T10:04:00;5.68;;;4.80;;
13981;SDS011;7065;50.880;5.502;2023-07-09T10:06:33;8.43;;;5.65;;
13981;SDS011;7065;50.880;5.502;2023-07-09T10:17:00;6.05;;;4.85;;
13981;SDS011;7065;50.880;5.502;2023-07-09T10:22:28;5.28;;;4.78;;
13981;SDS011;7065;50.880;5.502;2023-07-09T10:30:39;4.88;;;4.40;;
13981;SDS011;7065;50.880;5.502;2023-07-09T10:39:31;6.22;;;4.80;;
13981;SDS011;7065;50.880;5.502;2023-07-09T10:42:11;6.60;;;5.13;;
13981;SDS011;7065;50.880;5.502;2023-07-09T10:44:43;5.55;;;4.65;;
13981;SDS011;7065;50.880;5.502;2023-07-09T10:47:26;4.97;;;4.40;;
13981;SDS011;7065;50.880;5.502;2023-07-09T10:49:57;6.10;;;4.53;;
13981;SDS011;7065;50.880;5.502;2023-07-09T10:52:27;5.18;;;4.53;;
13981;SDS011;7065;50.880;5.502;2023-07-09T10:55:03;4.93;;;4.43;;
13981;SDS011;7065;50.880;5.502;2023-07-09T11:00:03;6.32;;;4.40;;
13981;SDS011;7065;50.880;5.502;2023-07-09T11:02:33;5.18;;;4.40;;
13981;SDS011;7065;50.880;5.502;2023-07-09T11:05:05;6.75;;;4.68;;
13981;SDS011;7065;50.880;5.502;2023-07-09T11:08:35;7.82;;;4.80;;
13981;SDS011;7065;50.880;5.502;2023-07-09T11:10:30;5.82;;;4.40;;
13981;SDS011;7065;50.880;5.502;2023-07-09T11:13:03;5.10;;;4.60;;
13981;SDS011;7065;50.880;5.502;2023-07-09T11:15:37;6.30;;;5.10;;
13981;SDS011;7065;50.880;5.502;2023-07-09T11:18:07;5.60;;;4.43;;
13981;SDS011;7065;50.880;5.502;2023-07-09T11:20:43;5.95;;;4.72;;
13981;SDS011;7065;50.880;5.502;2023-07-09T11:25:48;4.95;;;4.40;;
13981;SDS011;7065;50.880;5.502;2023-07-09T11:28:33;4.95;;;4.30;;
13981;SDS011;7065;50.880;5.502;2023-07-09T11:31:05;6.35;;;4.43;;
13981;SDS011;7065;50.880;5.502;2023-07-09T11:34:44;5.47;;;4.47;;
13981;SDS011;7065;50.880;5.502;2023-07-09T11:39:22;6.88;;;4.57;;
13981;SDS011;7065;50.880;5.502;2023-07-09T11:41:52;5.72;;;5.15;;
13981;SDS011;7065;50.880;5.502;2023-07-09T11:44:27;7.50;;;4.93;;
13981;SDS011;7065;50.880;5.502;2023-07-09T11:47:12;6.85;;;4.80;;
13981;SDS011;7065;50.880;5.502;2023-07-09T11:52:28;5.65;;;4.85;;
13981;SDS011;7065;50.880;5.502;2023-07-09T11:55:14;6.28;;;4.25;;
13981;SDS011;7065;50.880;5.502;2023-07-09T11:57:48;6.13;;;5.00;;
13981;SDS011;7065;50.880;5.502;2023-07-09T12:00:37;7.97;;;5.25;;
13981;SDS011;7065;50.880;5.502;2023-07-09T12:03:11;7.72;;;4.63;;
13981;SDS011;7065;50.880;5.502;2023-07-09T12:05:42;5.93;;;5.20;;
13981;SDS011;7065;50.880;5.502;2023-07-09T12:08:15;6.57;;;4.40;;
13981;SDS011;7065;50.880;5.502;2023-07-09T12:10:42;5.68;;;4.60;;
13981;SDS011;7065;50.880;5.502;2023-07-09T12:13:10;6.97;;;4.80;;
13981;SDS011;7065;50.880;5.502;2023-07-09T12:15:38;5.18;;;4.32;;
13981;SDS011;7065;50.880;5.502;2023-07-09T12:18:14;5.75;;;5.00;;
13981;SDS011;7065;50.880;5.502;2023-07-09T12:20:41;6.75;;;5.22;;
13981;SDS011;7065;50.880;5.502;2023-07-09T12:25:52;6.05;;;4.65;;
13981;SDS011;7065;50.880;5.502;2023-07-09T12:28:19;5.63;;;5.13;;
13981;SDS011;7065;50.880;5.502;2023-07-09T12:30:47;5.82;;;5.22;;
13981;SDS011;7065;50.880;5.502;2023-07-09T12:33:17;6.10;;;5.47;;
13981;SDS011;7065;50.880;5.502;2023-07-09T12:35:45;6.05;;;5.55;;
13981;SDS011;7065;50.880;5.502;2023-07-09T12:38:19;7.38;;;5.93;;
13981;SDS011;7065;50.880;5.502;2023-07-09T12:40:46;9.32;;;6.68;;
13981;SDS011;7065;50.880;5.502;2023-07-09T12:43:13;10.32;;;6.95;;
13981;SDS011;7065;50.880;5.502;2023-07-09T12:45:39;7.43;;;6.60;;
13981;SDS011;7065;50.880;5.502;2023-07-09T12:48:05;8.32;;;7.28;;
13981;SDS011;7065;50.880;5.502;2023-07-09T12:50:33;7.97;;;6.80;;
13981;SDS011;7065;50.880;5.502;2023-07-09T12:53:11;6.97;;;6.38;;
13981;SDS011;7065;50.880;5.502;2023-07-09T12:55:41;9.07;;;8.23;;
13981;SDS011;7065;50.880;5.502;2023-07-09T12:58:09;15.95;;;9.35;;
13981;SDS011;7065;50.880;5.502;2023-07-09T13:00:40;12.88;;;10.95;;
13981;SDS011;7065;50.880;5.502;2023-07-09T13:03:12;15.57;;;11.57;;
13981;SDS011;7065;50.880;5.502;2023-07-09T13:05:39;14.18;;;12.00;;
13981;SDS011;7065;50.880;5.502;2023-07-09T13:08:17;15.85;;;14.18;;
13981;SDS011;7065;50.880;5.502;2023-07-09T13:10:43;14.75;;;12.98;;
13981;SDS011;7065;50.880;5.502;2023-07-09T13:13:13;14.20;;;12.50;;
13981;SDS011;7065;50.880;5.502;2023-07-09T13:15:43;13.32;;;12.02;;
13981;SDS011;7065;50.880;5.502;2023-07-09T13:18:13;13.02;;;10.77;;
13981;SDS011;7065;50.880;5.502;2023-07-09T13:20:40;11.07;;;9.23;;
13981;SDS011;7065;50.880;5.502;2023-07-09T13:23:08;10.23;;;9.13;;
13981;SDS011;7065;50.880;5.502;2023-07-09T13:25:41;10.85;;;9.20;;
13981;SDS011;7065;50.880;5.502;2023-07-09T13:28:18;10.15;;;8.48;;
13981;SDS011;7065;50.880;5.502;2023-07-09T13:30:46;8.95;;;7.85;;
13981;SDS011;7065;50.880;5.502;2023-07-09T13:33:20;10.15;;;7.53;;
13981;SDS011;7065;50.880;5.502;2023-07-09T13:35:46;10.93;;;8.00;;
13981;SDS011;7065;50.880;5.502;2023-07-09T13:38:16;10.68;;;8.20;;
13981;SDS011;7065;50.880;5.502;2023-07-09T13:40:43;9.40;;;8.38;;
13981;SDS011;7065;50.880;5.502;2023-07-09T13:43:14;11.60;;;9.18;;
13981;SDS011;7065;50.880;5.502;2023-07-09T13:45:42;9.40;;;8.10;;
13981;SDS011;7065;50.880;5.502;2023-07-09T13:48:17;11.45;;;9.75;;
13981;SDS011;7065;50.880;5.502;2023-07-09T13:50:46;11.00;;;8.52;;
13981;SDS011;7065;50.880;5.502;2023-07-09T13:53:15;10.20;;;9.13;;
13981;SDS011;7065;50.880;5.502;2023-07-09T13:55:43;12.45;;;8.80;;
13981;SDS011;7065;50.880;5.502;2023-07-09T13:58:11;10.05;;;8.60;;
13981;SDS011;7065;50.880;5.502;2023-07-09T14:00:40;8.88;;;7.80;;
13981;SDS011;7065;50.880;5.502;2023-07-09T14:03:24;8.38;;;7.68;;
13981;SDS011;7065;50.880;5.502;2023-07-09T14:05:52;8.48;;;7.55;;
13981;SDS011;7065;50.880;5.502;2023-07-09T14:08:18;8.10;;;6.82;;
13981;SDS011;7065;50.880;5.502;2023-07-09T14:10:45;7.93;;;7.22;;
13981;SDS011;7065;50.880;5.502;2023-07-09T14:13:12;7.78;;;6.65;;
13981;SDS011;7065;50.880;5.502;2023-07-09T14:15:40;7.40;;;6.60;;
13981;SDS011;7065;50.880;5.502;2023-07-09T14:18:17;8.38;;;7.57;;
13981;SDS011;7065;50.880;5.502;2023-07-09T14:20:44;6.72;;;6.03;;
13981;SDS011;7065;50.880;5.502;2023-07-09T14:23:15;9.07;;;7.70;;
13981;SDS011;7065;50.880;5.502;2023-07-09T14:25:43;7.15;;;6.45;;
13981;SDS011;7065;50.880;5.502;2023-07-09T14:28:19;9.00;;;7.28;;
13981;SDS011;7065;50.880;5.502;2023-07-09T14:30:45;8.98;;;6.50;;
13981;SDS011;7065;50.880;5.502;2023-07-09T14:33:15;9.15;;;7.38;;
13981;SDS011;7065;50.880;5.502;2023-07-09T14:35:45;9.00;;;6.28;;
13981;SDS011;7065;50.880;5.502;2023-07-09T14:38:19;7.78;;;6.60;;
13981;SDS011;7065;50.880;5.502;2023-07-09T14:40:46;6.60;;;6.00;;
13981;SDS011;7065;50.880;5.502;2023-07-09T14:43:13;7.40;;;5.28;;
13981;SDS011;7065;50.880;5.502;2023-07-09T14:45:39;6.68;;;5.95;;
13981;SDS011;7065;50.880;5.502;2023-07-09T14:48:13;6.53;;;5.93;;
13981;SDS011;7065;50.880;5.502;2023-07-09T14:50:40;7.10;;;5.60;;
13981;SDS011;7065;50.880;5.502;2023-07-09T14:53:14;7.22;;;5.65;;
13981;SDS011;7065;50.880;5.502;2023-07-09T14:55:42;7.80;;;6.47;;
13981;SDS011;7065;50.880;5.502;2023-07-09T14:58:19;8.40;;;6.25;;
13981;SDS011;7065;50.880;5.502;2023-07-09T15:00:47;7.28;;;6.57;;
13981;SDS011;7065;50.880;5.502;2023-07-09T15:03:22;6.82;;;6.13;;
13981;SDS011;7065;50.880;5.502;2023-07-09T15:05:51;9.32;;;6.53;;
13981;SDS011;7065;50.880;5.502;2023-07-09T15:08:20;6.00;;;5.40;;
13981;SDS011;7065;50.880;5.502;2023-07-09T15:10:47;7.70;;;6.00;;
13981;SDS011;7065;50.880;5.502;2023-07-09T15:13:17;7.05;;;6.28;;
13981;SDS011;7065;50.880;5.502;2023-07-09T15:15:45;6.75;;;6.03;;
13981;SDS011;7065;50.880;5.502;2023-07-09T15:18:12;7.22;;;6.00;;
13981;SDS011;7065;50.880;5.502;2023-07-09T15:20:42;6.32;;;5.72;;
13981;SDS011;7065;50.880;5.502;2023-07-09T15:23:12;5.90;;;5.32;;
13981;SDS011;7065;50.880;5.502;2023-07-09T15:25:38;7.30;;;5.30;;
13981;SDS011;7065;50.880;5.502;2023-07-09T15:28:04;6.30;;;5.15;;
13981;SDS011;7065;50.880;5.502;2023-07-09T15:30:30;6.18;;;5.53;;
13981;SDS011;7065;50.880;5.502;2023-07-09T15:32:57;6.85;;;5.05;;
13981;SDS011;7065;50.880;5.502;2023-07-09T15:35:25;4.90;;;4.40;;
13981;SDS011;7065;50.880;5.502;2023-07-09T15:37:58;5.13;;;4.63;;
13981;SDS011;7065;50.880;5.502;2023-07-09T15:40:25;7.13;;;5.53;;
13981;SDS011;7065;50.880;5.502;2023-07-09T15:42:54;6.93;;;5.30;;
13981;SDS011;7065;50.880;5.502;2023-07-09T15:45:22;7.25;;;5.90;;
13981;SDS011;7065;50.880;5.502;2023-07-09T15:47:49;5.75;;;4.57;;
13981;SDS011;7065;50.880;5.502;2023-07-09T15:52:46;6.03;;;4.82;;
13981;SDS011;7065;50.880;5.502;2023-07-09T15:55:16;5.15;;;4.18;;
13981;SDS011;7065;50.880;5.502;2023-07-09T15:57:47;6.22;;;5.40;;
13981;SDS011;7065;50.880;5.502;2023-07-09T16:00:14;6.63;;;4.65;;
13981;SDS011;7065;50.880;5.502;2023-07-09T16:02:44;6.07;;;5.15;;